Time;durP1;ratioP1;P1;durP2;ratioP2;P2;SDS_P1;SDS_P2;PMS_P1;PMS_P2;Temp;Humidity;BMP_temperature;BMP_pressure;BME280_temperature;BME280_humidity;BME280_pressure;Samples;Min_cycle;Max_cycle;Signal;HPM_P1;HPM_P2
2023/04/21 00:02:14;;;;;;;;;;;8.90;99.90;;;;;;5069733;28;19931;-81
2023/04/21 00:04:40;;;;;;;;;;;8.90;99.90;;;;;;5068248;28;19936;-81
2023/04/21 00:07:07;;;;;;;;;;;9.00;99.90;;;;;;5068652;28;19931;-82
2023/04/21 00:09:32;;;;;;;;;;;8.90;99.90;;;;;;5035795;28;20016;-82
2023/04/21 00:11:58;;;;;;;;;;;8.90;99.90;;;;;;5069485;28;20391;-81
2023/04/21 00:14:23;;;;;;;;;;;8.90;99.90;;;;;;5031063;28;20379;-82
2023/04/21 00:16:51;;;;;;;;;;;8.90;99.90;;;;;;5072066;28;19924;-82
2023/04/21 00:19:18;;;;;;;;;;;8.90;99.90;;;;;;5070936;28;21840;-82
2023/04/21 00:21:44;;;;;;;;;;;8.90;99.90;;;;;;5068038;28;19945;-82
2023/04/21 00:24:10;;;;;;;;;;;8.90;99.90;;;;;;5052076;28;19940;-81
2023/04/21 00:26:36;;;;;;;;;;;8.80;99.90;;;;;;5068282;28;19936;-82
2023/04/21 00:29:01;;;;;;;;;;;8.80;99.90;;;;;;5083813;28;19992;-82
2023/04/21 00:31:27;;;;;;;;;;;8.70;99.90;;;;;;5051967;28;19942;-82
2023/04/21 00:33:52;;;;;;;;;;;8.70;99.90;;;;;;5084086;28;19932;-81
2023/04/21 00:36:18;;;;;;;;;;;8.60;99.90;;;;;;5083051;28;19939;-81
2023/04/21 00:38:44;;;;;;;;;;;8.60;99.90;;;;;;5065200;28;19931;-81
2023/04/21 00:41:09;;;;;;;;;;;8.60;99.90;;;;;;5068547;28;19928;-81
2023/04/21 00:43:35;;;;;;;;;;;8.50;99.90;;;;;;5068664;28;20643;-82
2023/04/21 00:46:01;;;;;;;;;;;8.50;99.90;;;;;;5084710;28;19940;-81
2023/04/21 00:48:26;;;;;;;;;;;8.50;99.90;;;;;;5068683;28;19932;-81
2023/04/21 00:50:52;;;;;;;;;;;8.50;99.90;;;;;;5069393;28;19929;-82
2023/04/21 00:53:18;;;;;;;;;;;8.50;99.90;;;;;;5084241;28;19936;-82
2023/04/21 00:55:44;;;;;;;;;;;8.50;99.90;;;;;;5068468;28;19996;-82
2023/04/21 00:58:10;;;;;;;;;;;8.50;99.90;;;;;;5083383;28;19960;-81
2023/04/21 01:00:36;;;;;;;;;;;8.50;99.90;;;;;;5064413;28;19924;-81
2023/04/21 01:03:03;;;;;;;;;;;8.50;99.90;;;;;;5085858;28;19940;-82
2023/04/21 01:05:29;;;;;;;;;;;8.50;99.90;;;;;;5085087;28;20026;-82
2023/04/21 01:07:55;;;;;;;;;;;8.50;99.90;;;;;;5087324;28;19975;-82
2023/04/21 01:10:21;;;;;;;;;;;8.50;99.90;;;;;;5082819;28;19939;-82
2023/04/21 01:12:46;;;;;;;;;;;8.50;99.90;;;;;;5069133;28;19944;-81
2023/04/21 01:15:12;;;;;;;;;;;8.50;99.90;;;;;;5083026;28;20357;-81
2023/04/21 01:17:39;;;;;;;;;;;8.50;99.90;;;;;;5085686;28;19928;-81
2023/04/21 01:20:09;;;;;;;;;;;8.50;99.90;;;;;;5069856;28;19975;-82
2023/04/21 01:22:36;;;;;;;;;;;8.50;99.90;;;;;;5070254;28;19935;-82
2023/04/21 01:25:02;;;;;;;;;;;8.50;99.90;;;;;;5070686;28;19930;-80
2023/04/21 01:27:28;;;;;;;;;;;8.50;99.90;;;;;;5086641;28;20312;-78
2023/04/21 01:29:53;;;;;;;;;;;8.50;99.90;;;;;;5070693;28;19932;-80
2023/04/21 01:32:20;;;;;;;;;;;8.50;99.90;;;;;;5087000;28;19924;-79
2023/04/21 01:34:46;;;;;;;;;;;8.50;99.90;;;;;;5068485;28;20431;-79
2023/04/21 01:37:13;;;;;;;;;;;8.50;99.90;;;;;;5068823;28;19924;-78
2023/04/21 01:39:39;;;;;;;;;;;8.50;99.90;;;;;;5103046;28;19928;-79
2023/04/21 01:42:04;;;;;;;;;;;8.50;99.90;;;;;;5084610;28;19939;-81
2023/04/21 01:44:30;;;;;;;;;;;8.50;99.90;;;;;;5069807;28;19925;-81
2023/04/21 01:46:56;;;;;;;;;;;8.50;99.90;;;;;;5070273;28;19963;-81
2023/04/21 01:49:21;;;;;;;;;;;8.60;99.90;;;;;;5085581;28;20019;-81
2023/04/21 01:51:47;;;;;;;;;;;8.50;99.90;;;;;;5081468;28;19931;-81
2023/04/21 01:54:13;;;;;;;;;;;8.60;99.90;;;;;;5066871;28;19978;-81
2023/04/21 01:56:39;;;;;;;;;;;8.60;99.90;;;;;;5048892;28;20302;-81
2023/04/21 01:59:04;;;;;;;;;;;8.60;99.90;;;;;;5065852;28;19984;-81
2023/04/21 02:01:30;;;;;;;;;;;8.70;99.90;;;;;;5066605;28;20373;-81
2023/04/21 02:03:55;;;;;;;;;;;8.70;99.90;;;;;;5066350;28;19924;-81
2023/04/21 02:06:21;;;;;;;;;;;8.70;99.90;;;;;;5040809;28;20416;-81
2023/04/21 02:08:47;;;;;;;;;;;8.70;99.90;;;;;;5050592;28;19929;-81
2023/04/21 02:11:12;;;;;;;;;;;8.70;99.90;;;;;;5050879;28;19935;-80
2023/04/21 02:13:38;;;;;;;;;;;8.60;99.90;;;;;;5065037;28;20403;-81
2023/04/21 02:16:03;;;;;;;;;;;8.60;99.90;;;;;;5049409;28;19944;-80
2023/04/21 02:18:29;;;;;;;;;;;8.70;99.90;;;;;;5083476;28;20590;-81
2023/04/21 02:20:55;;;;;;;;;;;8.60;99.90;;;;;;5052056;28;19933;-80
2023/04/21 02:23:21;;;;;;;;;;;8.70;99.90;;;;;;5051791;28;19941;-81
2023/04/21 02:25:46;;;;;;;;;;;8.60;99.90;;;;;;5082620;28;19924;-81
2023/04/21 02:28:12;;;;;;;;;;;8.70;99.90;;;;;;5050923;28;19964;-80
2023/04/21 02:30:37;;;;;;;;;;;8.60;99.90;;;;;;5082818;28;19960;-80
2023/04/21 02:33:03;;;;;;;;;;;8.60;99.90;;;;;;5064378;28;19935;-80
2023/04/21 02:35:28;;;;;;;;;;;8.60;99.90;;;;;;5065153;28;19928;-80
2023/04/21 02:37:54;;;;;;;;;;;8.60;99.90;;;;;;5046973;28;19963;-80
2023/04/21 02:40:20;;;;;;;;;;;8.60;99.90;;;;;;5065558;28;19928;-81
2023/04/21 02:42:45;;;;;;;;;;;8.60;99.90;;;;;;5067075;28;20746;-81
2023/04/21 02:45:11;;;;;;;;;;;8.60;99.90;;;;;;5050293;28;19995;-80
2023/04/21 02:47:36;;;;;;;;;;;8.60;99.90;;;;;;5050179;28;19936;-81
2023/04/21 02:50:03;;;;;;;;;;;8.70;99.90;;;;;;5065038;28;19924;-81
2023/04/21 02:52:28;;;;;;;;;;;8.70;99.90;;;;;;5067483;28;19988;-80
2023/04/21 02:54:54;;;;;;;;;;;8.70;99.90;;;;;;5049696;28;20430;-80
2023/04/21 02:57:19;;;;;;;;;;;8.70;99.90;;;;;;5064425;28;20593;-81
2023/04/21 02:59:45;;;;;;;;;;;8.70;99.90;;;;;;5048077;28;19925;-81
2023/04/21 03:02:10;;;;;;;;;;;8.70;99.90;;;;;;5082802;28;19998;-81
2023/04/21 03:04:36;;;;;;;;;;;8.70;99.90;;;;;;5065168;28;19950;-81
2023/04/21 03:07:02;;;;;;;;;;;8.70;99.90;;;;;;5064531;28;19925;-80
2023/04/21 03:09:27;;;;;;;;;;;8.70;99.90;;;;;;5066959;28;19933;-80
2023/04/21 03:11:53;;;;;;;;;;;8.80;99.90;;;;;;5082975;28;19939;-81
2023/04/21 03:14:19;;;;;;;;;;;8.90;99.90;;;;;;5067065;28;19964;-81
2023/04/21 03:16:46;;;;;;;;;;;8.90;99.90;;;;;;5083042;28;19925;-81
2023/04/21 03:19:11;;;;;;;;;;;9.00;99.90;;;;;;5084415;28;19934;-80
2023/04/21 03:21:37;;;;;;;;;;;9.00;99.90;;;;;;5085679;28;20034;-80
2023/04/21 03:24:04;;;;;;;;;;;9.00;99.90;;;;;;5037694;28;19924;-81
2023/04/21 03:26:29;;;;;;;;;;;9.10;99.90;;;;;;5085126;28;19925;-80
2023/04/21 03:28:55;;;;;;;;;;;9.10;99.90;;;;;;5070339;28;19974;-80
2023/04/21 03:31:21;;;;;;;;;;;9.10;99.90;;;;;;5068967;28;19928;-80
2023/04/21 03:33:46;;;;;;;;;;;9.10;99.90;;;;;;5087426;28;19956;-80
2023/04/21 03:36:12;;;;;;;;;;;9.20;99.90;;;;;;5069019;28;19924;-80
2023/04/21 03:38:37;;;;;;;;;;;9.20;99.90;;;;;;5085933;28;19947;-80
2023/04/21 03:41:03;;;;;;;;;;;9.20;99.90;;;;;;5067664;28;19928;-80
2023/04/21 03:43:29;;;;;;;;;;;9.30;99.90;;;;;;5069935;28;19925;-80
2023/04/21 03:45:55;;;;;;;;;;;9.30;99.90;;;;;;5069670;28;19940;-80
2023/04/21 03:48:20;;;;;;;;;;;9.30;99.90;;;;;;5052812;28;19928;-81
2023/04/21 03:50:46;;;;;;;;;;;9.30;99.90;;;;;;5069444;28;19925;-80
2023/04/21 03:53:11;;;;;;;;;;;9.30;99.90;;;;;;5069650;28;19932;-81
2023/04/21 03:55:37;;;;;;;;;;;9.30;99.90;;;;;;5070229;28;20341;-81
2023/04/21 03:58:02;;;;;;;;;;;9.30;99.90;;;;;;5069485;28;19928;-80
2023/04/21 04:00:28;;;;;;;;;;;9.20;99.90;;;;;;5068889;28;19974;-81
2023/04/21 04:02:54;;;;;;;;;;;9.30;99.90;;;;;;5054120;28;20438;-81
2023/04/21 04:05:19;;;;;;;;;;;9.20;99.90;;;;;;5090090;28;19931;-80
2023/04/21 04:07:45;;;;;;;;;;;9.30;99.90;;;;;;5072289;28;19924;-81
2023/04/21 04:10:10;;;;;;;;;;;9.20;99.90;;;;;;5087483;28;19928;-81
2023/04/21 04:12:36;;;;;;;;;;;9.20;99.90;;;;;;5071073;28;19955;-80
2023/04/21 04:15:02;;;;;;;;;;;9.30;99.90;;;;;;5056367;28;20011;-80
2023/04/21 04:17:27;;;;;;;;;;;9.20;99.90;;;;;;5071602;28;19932;-81
2023/04/21 04:19:53;;;;;;;;;;;9.30;99.90;;;;;;5071570;28;19932;-80
2023/04/21 04:22:18;;;;;;;;;;;9.20;99.90;;;;;;5071039;28;19924;-80
2023/04/21 04:24:44;;;;;;;;;;;9.20;99.90;;;;;;5087753;28;19932;-80
2023/04/21 04:27:12;;;;;;;;;;;9.20;99.90;;;;;;5037757;28;19951;-81
2023/04/21 04:29:38;;;;;;;;;;;9.20;99.90;;;;;;5065590;28;19929;-80
2023/04/21 04:32:05;;;;;;;;;;;9.20;99.90;;;;;;5085815;28;19925;-80
2023/04/21 04:34:31;;;;;;;;;;;9.20;99.90;;;;;;5067625;28;19950;-80
2023/04/21 04:36:57;;;;;;;;;;;9.10;99.90;;;;;;5100692;28;19936;-80
2023/04/21 04:39:24;;;;;;;;;;;9.10;99.90;;;;;;5066775;28;19940;-81
2023/04/21 04:41:51;;;;;;;;;;;9.10;99.90;;;;;;5069733;28;19959;-81
2023/04/21 04:44:17;;;;;;;;;;;9.00;99.90;;;;;;5066798;28;19925;-81
2023/04/21 04:46:44;;;;;;;;;;;9.00;99.90;;;;;;5052791;28;20059;-81
2023/04/21 04:49:09;;;;;;;;;;;8.90;99.90;;;;;;5068383;28;20346;-80
2023/04/21 04:51:35;;;;;;;;;;;8.90;99.90;;;;;;5051323;28;19993;-80
2023/04/21 04:54:01;;;;;;;;;;;8.90;99.90;;;;;;5035977;28;19955;-80
2023/04/21 04:56:28;;;;;;;;;;;8.90;99.90;;;;;;5049924;28;19924;-81
2023/04/21 04:58:54;;;;;;;;;;;9.00;99.90;;;;;;5043244;28;19950;-81
2023/04/21 05:01:19;;;;;;;;;;;9.10;99.90;;;;;;5067330;28;19924;-81
2023/04/21 05:03:45;;;;;;;;;;;9.20;99.90;;;;;;5066835;28;19928;-80
2023/04/21 05:06:12;;;;;;;;;;;9.30;99.90;;;;;;5052149;28;19932;-79
2023/04/21 05:08:40;;;;;;;;;;;9.40;99.90;;;;;;5085955;28;19932;-80
2023/04/21 05:11:06;;;;;;;;;;;9.40;99.90;;;;;;5091581;28;19924;-80
2023/04/21 05:13:31;;;;;;;;;;;9.50;99.90;;;;;;5082262;28;19991;-81
2023/04/21 05:15:57;;;;;;;;;;;9.40;99.90;;;;;;5067502;28;19968;-81
2023/04/21 05:18:23;;;;;;;;;;;9.50;99.90;;;;;;5067315;28;19928;-80
2023/04/21 05:20:48;;;;;;;;;;;9.60;99.90;;;;;;5086194;28;19928;-80
2023/04/21 05:23:14;;;;;;;;;;;9.60;99.90;;;;;;5051846;28;19969;-80
2023/04/21 05:25:40;;;;;;;;;;;9.60;99.90;;;;;;5086287;28;19936;-80
2023/04/21 05:28:05;;;;;;;;;;;9.50;99.90;;;;;;5070678;28;20013;-81
2023/04/21 05:30:31;;;;;;;;;;;9.50;99.90;;;;;;5070989;28;20268;-80
2023/04/21 05:32:56;;;;;;;;;;;9.50;99.90;;;;;;5070209;28;19963;-81
2023/04/21 05:35:22;;;;;;;;;;;9.50;99.90;;;;;;5053383;28;19928;-80
2023/04/21 05:37:47;;;;;;;;;;;9.50;99.90;;;;;;5054972;28;19924;-80
2023/04/21 05:40:13;;;;;;;;;;;9.50;99.90;;;;;;5068863;28;20354;-80
2023/04/21 05:42:39;;;;;;;;;;;9.50;99.90;;;;;;5082283;28;19936;-80
2023/04/21 05:45:05;;;;;;;;;;;9.50;99.90;;;;;;5067303;28;20402;-80
2023/04/21 05:47:30;;;;;;;;;;;9.60;99.90;;;;;;5064760;28;19978;-80
2023/04/21 05:49:56;;;;;;;;;;;9.60;99.90;;;;;;5065258;28;19928;-80
2023/04/21 05:52:22;;;;;;;;;;;9.60;99.90;;;;;;5082194;28;19925;-73
2023/04/21 05:54:47;;;;;;;;;;;9.70;99.90;;;;;;5068900;28;20442;-80
2023/04/21 05:57:13;;;;;;;;;;;9.80;99.90;;;;;;5068235;28;21465;-81
2023/04/21 05:59:39;;;;;;;;;;;9.90;99.90;;;;;;5048788;28;19938;-80
2023/04/21 06:02:04;;;;;;;;;;;10.00;99.90;;;;;;5035065;28;19925;-80
2023/04/21 06:04:30;;;;;;;;;;;10.10;99.90;;;;;;5083354;28;19925;-80
2023/04/21 06:06:55;;;;;;;;;;;10.20;99.90;;;;;;5083772;28;19979;-80
2023/04/21 06:09:21;;;;;;;;;;;10.20;99.90;;;;;;5067729;28;19943;-81
2023/04/21 06:11:47;;;;;;;;;;;10.20;99.90;;;;;;5099339;28;19989;-80
2023/04/21 06:14:12;;;;;;;;;;;10.20;99.90;;;;;;5081563;28;19924;-80
2023/04/21 06:16:38;;;;;;;;;;;10.30;99.90;;;;;;5048499;28;19925;-81
2023/04/21 06:19:03;;;;;;;;;;;10.30;99.90;;;;;;5065216;28;20015;-81
2023/04/21 06:21:29;;;;;;;;;;;10.50;99.90;;;;;;5051338;28;20543;-80
2023/04/21 06:23:55;;;;;;;;;;;10.60;99.90;;;;;;5064858;28;19932;-81
2023/04/21 06:26:20;;;;;;;;;;;10.70;99.90;;;;;;5034882;28;19935;-80
2023/04/21 06:28:46;;;;;;;;;;;10.90;99.90;;;;;;5067345;28;19928;-80
2023/04/21 06:31:14;;;;;;;;;;;10.90;99.90;;;;;;5065844;28;19963;-80
2023/04/21 06:33:40;;;;;;;;;;;10.90;99.90;;;;;;5051841;28;19932;-80
2023/04/21 06:36:06;;;;;;;;;;;11.00;99.90;;;;;;5064929;28;20538;-80
2023/04/21 06:38:31;;;;;;;;;;;11.10;99.90;;;;;;5084000;28;19928;-80
2023/04/21 06:40:57;;;;;;;;;;;11.10;99.90;;;;;;5083014;28;19932;-80
2023/04/21 06:43:23;;;;;;;;;;;11.10;99.90;;;;;;5078407;28;19960;-80
2023/04/21 06:45:48;;;;;;;;;;;11.10;99.90;;;;;;5085576;28;19951;-81
2023/04/21 06:48:14;;;;;;;;;;;11.10;99.90;;;;;;5032987;28;19933;-81
2023/04/21 06:50:39;;;;;;;;;;;11.00;99.90;;;;;;5035317;28;20006;-80
2023/04/21 06:53:05;;;;;;;;;;;11.00;99.90;;;;;;5083267;28;19936;-80
2023/04/21 06:55:31;;;;;;;;;;;10.90;99.90;;;;;;5055602;28;19940;-80
2023/04/21 06:57:56;;;;;;;;;;;11.00;99.90;;;;;;5084169;28;19990;-81
2023/04/21 07:00:22;;;;;;;;;;;10.90;99.90;;;;;;5069505;28;19961;-80
2023/04/21 07:02:48;;;;;;;;;;;10.90;99.90;;;;;;5070626;28;19931;-80
2023/04/21 07:05:13;;;;;;;;;;;10.90;99.90;;;;;;5073035;28;19955;-80
2023/04/21 07:07:39;;;;;;;;;;;10.90;99.90;;;;;;5069532;28;20567;-81
2023/04/21 07:10:05;;;;;;;;;;;10.90;99.90;;;;;;5066710;28;20417;-81
2023/04/21 07:12:30;;;;;;;;;;;10.80;99.90;;;;;;5069641;28;19929;-80
2023/04/21 07:14:56;;;;;;;;;;;10.90;99.90;;;;;;5054998;28;19999;-80
2023/04/21 07:17:21;;;;;;;;;;;10.90;99.90;;;;;;5070072;28;19932;-81
2023/04/21 07:19:47;;;;;;;;;;;10.90;99.90;;;;;;5045464;28;20344;-81
2023/04/21 07:22:13;;;;;;;;;;;10.90;99.90;;;;;;5082701;28;19972;-81
2023/04/21 07:24:38;;;;;;;;;;;11.00;99.90;;;;;;5075492;28;19954;-80
2023/04/21 07:27:04;;;;;;;;;;;11.00;99.90;;;;;;5085779;28;20302;-80
2023/04/21 07:29:30;;;;;;;;;;;11.10;99.90;;;;;;5101724;28;19924;-80
2023/04/21 07:31:57;;;;;;;;;;;11.20;99.90;;;;;;5064952;28;19996;-81
2023/04/21 07:34:23;;;;;;;;;;;11.20;99.90;;;;;;5068694;28;20291;-80
2023/04/21 07:36:49;;;;;;;;;;;11.30;99.90;;;;;;5068280;28;19924;-81
2023/04/21 07:39:15;;;;;;;;;;;11.30;99.90;;;;;;5088964;28;19924;-81
2023/04/21 07:41:43;;;;;;;;;;;11.50;99.90;;;;;;5085877;28;19946;-81
2023/04/21 07:44:09;;;;;;;;;;;11.50;99.90;;;;;;5071870;28;19924;-79
2023/04/21 07:46:34;;;;;;;;;;;11.70;99.90;;;;;;5087316;28;20007;-81
2023/04/21 07:49:00;;;;;;;;;;;11.80;99.90;;;;;;5070658;28;19928;-81
2023/04/21 07:51:29;;;;;;;;;;;11.90;99.90;;;;;;5072369;28;20031;-81
2023/04/21 07:53:54;;;;;;;;;;;12.00;99.90;;;;;;5063099;28;19935;-80
2023/04/21 07:56:20;;;;;;;;;;;12.10;99.90;;;;;;5095336;28;19925;-80
2023/04/21 07:58:46;;;;;;;;;;;12.10;99.90;;;;;;5086899;28;19924;-81
2023/04/21 08:01:11;;;;;;;;;;;12.10;99.90;;;;;;5092913;28;20015;-81
2023/04/21 08:03:37;;;;;;;;;;;12.10;99.90;;;;;;5065411;28;19924;-83
2023/04/21 08:06:03;;;;;;;;;;;12.20;99.90;;;;;;5042476;28;19924;-83
2023/04/21 08:08:29;;;;;;;;;;;12.30;99.90;;;;;;5061062;28;19928;-83
2023/04/21 08:10:54;;;;;;;;;;;12.50;99.90;;;;;;5045578;28;19932;-83
2023/04/21 08:13:23;;;;;;;;;;;12.70;99.90;;;;;;5042931;28;19931;-83
2023/04/21 08:15:52;;;;;;;;;;;12.90;99.90;;;;;;5036469;28;19932;-83
2023/04/21 08:18:18;;;;;;;;;;;13.00;99.90;;;;;;5078502;28;19924;-82
2023/04/21 08:20:46;;;;;;;;;;;13.20;99.90;;;;;;5095358;28;19932;-83
2023/04/21 08:23:15;;;;;;;;;;;13.30;99.90;;;;;;5079295;28;19932;-83
2023/04/21 08:25:40;;;;;;;;;;;13.40;99.90;;;;;;5095239;28;20398;-83
2023/04/21 08:28:06;;;;;;;;;;;13.50;99.90;;;;;;5078737;28;19935;-83
2023/04/21 08:30:32;;;;;;;;;;;13.70;99.90;;;;;;5095245;28;19951;-83
2023/04/21 08:32:57;;;;;;;;;;;13.90;99.90;;;;;;5057468;28;19932;-82
2023/04/21 08:35:23;;;;;;;;;;;14.00;99.90;;;;;;5062892;28;19924;-83
2023/04/21 08:37:49;;;;;;;;;;;14.10;99.90;;;;;;5076085;28;19943;-82
2023/04/21 08:40:15;;;;;;;;;;;14.30;99.90;;;;;;5072753;28;19979;-82
2023/04/21 08:42:41;;;;;;;;;;;14.30;99.90;;;;;;5039016;28;19932;-82
2023/04/21 08:45:07;;;;;;;;;;;14.40;99.90;;;;;;5085411;28;19929;-83
2023/04/21 08:47:33;;;;;;;;;;;14.40;99.90;;;;;;5066285;28;20003;-83
2023/04/21 08:49:58;;;;;;;;;;;14.40;99.90;;;;;;5076686;28;19928;-82
2023/04/21 08:52:24;;;;;;;;;;;14.40;99.90;;;;;;5089076;28;19929;-83
2023/04/21 08:54:52;;;;;;;;;;;14.50;99.90;;;;;;5055997;28;20110;-82
2023/04/21 08:57:18;;;;;;;;;;;14.70;99.90;;;;;;5088170;28;19952;-82
2023/04/21 08:59:44;;;;;;;;;;;14.90;99.90;;;;;;5064625;28;20012;-84
2023/04/21 09:02:17;;;;;;;;;;;15.30;99.90;;;;;;5085170;28;19982;-83
2023/04/21 09:04:44;;;;;;;;;;;15.70;99.90;;;;;;5072207;28;19995;-83
2023/04/21 09:07:10;;;;;;;;;;;16.10;99.90;;;;;;5062061;28;19924;-83
2023/04/21 09:09:52;;;;;;;;;;;16.50;99.90;;;;;;5086266;28;19928;-83
2023/04/21 09:12:18;;;;;;;;;;;16.80;99.90;;;;;;5087125;28;20785;-83
2023/04/21 09:14:43;;;;;;;;;;;16.70;99.90;;;;;;5071025;28;19951;-83
2023/04/21 09:17:09;;;;;;;;;;;16.70;99.90;;;;;;5045640;28;19924;-83
2023/04/21 09:19:34;;;;;;;;;;;16.80;99.90;;;;;;5057856;28;20399;-83
2023/04/21 09:22:00;;;;;;;;;;;16.90;99.90;;;;;;5040560;28;19924;-82
2023/04/21 09:24:26;;;;;;;;;;;17.10;99.90;;;;;;5044552;28;19924;-86
2023/04/21 09:26:52;;;;;;;;;;;17.10;99.90;;;;;;5073558;28;19928;-81
2023/04/21 09:29:20;;;;;;;;;;;17.30;99.90;;;;;;5088031;28;20375;-82
2023/04/21 09:31:46;;;;;;;;;;;17.50;99.90;;;;;;5083741;28;20007;-82
2023/04/21 09:34:19;;;;;;;;;;;17.50;99.90;;;;;;5047261;28;19940;-82
2023/04/21 09:36:46;;;;;;;;;;;17.30;99.90;;;;;;5093442;28;19946;-82
2023/04/21 09:39:11;;;;;;;;;;;17.30;99.90;;;;;;5088506;28;19988;-81
2023/04/21 09:41:37;;;;;;;;;;;17.50;99.90;;;;;;5094200;28;19924;-81
2023/04/21 09:44:03;;;;;;;;;;;17.60;99.90;;;;;;5093697;28;19970;-81
2023/04/21 09:46:31;;;;;;;;;;;17.80;99.90;;;;;;5089461;28;19936;-82
2023/04/21 09:48:59;;;;;;;;;;;17.80;99.90;;;;;;5052337;28;19932;-82
2023/04/21 09:51:25;;;;;;;;;;;17.50;99.90;;;;;;5059468;28;19928;-82
2023/04/21 09:53:52;;;;;;;;;;;17.00;99.90;;;;;;5084576;28;19975;-82
2023/04/21 09:56:20;;;;;;;;;;;16.60;99.90;;;;;;5060856;28;19931;-80
2023/04/21 09:58:49;;;;;;;;;;;16.30;99.90;;;;;;5088056;28;19924;-81
2023/04/21 10:01:15;;;;;;;;;;;16.40;99.90;;;;;;5090344;28;19925;-81
2023/04/21 10:03:42;;;;;;;;;;;17.00;99.90;;;;;;5075269;28;19940;-82
2023/04/21 10:06:07;;;;;;;;;;;17.50;99.90;;;;;;5081476;28;19947;-81
2023/04/21 10:08:34;;;;;;;;;;;17.60;99.90;;;;;;5081282;28;19924;-81
2023/04/21 10:11:00;;;;;;;;;;;17.30;99.90;;;;;;5076299;28;19936;-80
2023/04/21 10:13:26;;;;;;;;;;;17.00;99.90;;;;;;5042671;28;20037;-81
2023/04/21 10:16:02;;;;;;;;;;;16.80;99.90;;;;;;5072619;28;20455;-82
2023/04/21 10:18:28;;;;;;;;;;;16.60;99.90;;;;;;5085909;28;19929;-81
2023/04/21 10:21:03;;;;;;;;;;;16.50;99.90;;;;;;5062208;28;19986;-81
2023/04/21 10:23:28;;;;;;;;;;;16.40;99.90;;;;;;5065711;28;19928;-81
2023/04/21 10:25:59;;;;;;;;;;;16.50;99.90;;;;;;5082697;28;20403;-81
2023/04/21 10:28:37;;;;;;;;;;;16.50;99.90;;;;;;5093630;28;19983;-80
2023/04/21 10:31:16;;;;;;;;;;;16.60;99.90;;;;;;5093268;28;19943;-81
2023/04/21 10:33:41;;;;;;;;;;;16.70;99.90;;;;;;5096322;28;19981;-81
2023/04/21 10:36:10;;;;;;;;;;;16.80;99.90;;;;;;5077463;28;19928;-82
2023/04/21 10:38:40;;;;;;;;;;;16.90;99.90;;;;;;5062698;28;19979;-82
2023/04/21 10:41:25;;;;;;;;;;;16.90;99.90;;;;;;5094015;28;19924;-82
2023/04/21 10:43:51;;;;;;;;;;;16.90;99.90;;;;;;5066264;28;19934;-81
2023/04/21 10:46:33;;;;;;;;;;;17.00;99.90;;;;;;5080083;28;19963;-82
2023/04/21 10:49:11;;;;;;;;;;;17.10;99.90;;;;;;5096788;28;20016;-82
2023/04/21 10:51:55;;;;;;;;;;;17.10;99.90;;;;;;5097324;28;19932;-81
2023/04/21 10:54:21;;;;;;;;;;;17.10;99.90;;;;;;5096277;28;19970;-81
2023/04/21 10:56:48;;;;;;;;;;;17.00;99.90;;;;;;5079085;28;19925;-82
2023/04/21 10:59:15;;;;;;;;;;;16.90;99.90;;;;;;5064067;28;19925;-81
2023/04/21 11:01:41;;;;;;;;;;;16.90;99.90;;;;;;5037231;28;19929;-82
2023/04/21 11:04:12;;;;;;;;;;;16.90;99.90;;;;;;5095945;28;20027;-81
2023/04/21 11:06:37;;;;;;;;;;;17.00;99.90;;;;;;5065735;28;19924;-81
2023/04/21 11:09:03;;;;;;;;;;;17.20;99.90;;;;;;5091672;28;20444;-81
2023/04/21 11:11:29;;;;;;;;;;;17.30;99.90;;;;;;5063572;28;19932;-81
2023/04/21 11:14:03;;;;;;;;;;;17.40;99.90;;;;;;5092426;28;19924;-82
2023/04/21 11:16:29;;;;;;;;;;;17.60;99.90;;;;;;5059392;28;19932;-82
2023/04/21 11:18:55;;;;;;;;;;;17.70;99.90;;;;;;5062754;28;19944;-81
2023/04/21 11:21:23;;;;;;;;;;;17.80;99.90;;;;;;5062709;28;19932;-81
2023/04/21 11:23:49;;;;;;;;;;;17.80;99.90;;;;;;5096554;28;19932;-82
2023/04/21 11:26:15;;;;;;;;;;;17.70;99.90;;;;;;5077441;28;19925;-82
2023/04/21 11:28:41;;;;;;;;;;;17.60;99.90;;;;;;5096108;28;19960;-81
2023/04/21 11:31:07;;;;;;;;;;;17.60;99.90;;;;;;5093194;28;20013;-81
2023/04/21 11:33:37;;;;;;;;;;;17.60;99.90;;;;;;5071606;28;19931;-82
2023/04/21 11:36:03;;;;;;;;;;;17.70;99.90;;;;;;5093363;28;20020;-81
2023/04/21 11:38:40;;;;;;;;;;;17.70;99.90;;;;;;5078015;28;19925;-81
2023/04/21 11:41:06;;;;;;;;;;;17.70;99.90;;;;;;5078708;28;19924;-82
2023/04/21 11:43:31;;;;;;;;;;;17.70;99.90;;;;;;5090401;28;19997;-81
2023/04/21 11:46:32;;;;;;;;;;;17.70;99.90;;;;;;5061374;28;20832;-82
2023/04/21 11:49:09;;;;;;;;;;;17.70;99.90;;;;;;5049908;28;19935;-81
2023/04/21 11:51:36;;;;;;;;;;;17.70;99.90;;;;;;5094108;28;19999;-81
2023/04/21 11:54:03;;;;;;;;;;;17.80;99.90;;;;;;5089685;28;19936;-83
2023/04/21 11:56:28;;;;;;;;;;;17.80;99.90;;;;;;5095359;28;20432;-81
2023/04/21 11:58:54;;;;;;;;;;;17.90;98.90;;;;;;5079179;28;19964;-82
2023/04/21 12:01:20;;;;;;;;;;;18.00;99.90;;;;;;5078781;28;19946;-82
2023/04/21 12:03:53;;;;;;;;;;;18.20;99.90;;;;;;5078117;28;20447;-81
2023/04/21 12:06:23;;;;;;;;;;;18.60;99.90;;;;;;5060820;28;19968;-81
2023/04/21 12:08:53;;;;;;;;;;;18.90;99.90;;;;;;5077999;28;19924;-82
2023/04/21 12:11:19;;;;;;;;;;;19.30;98.90;;;;;;5095383;28;19925;-82
2023/04/21 12:13:45;;;;;;;;;;;19.40;99.80;;;;;;5068491;28;20066;-82
2023/04/21 12:16:11;;;;;;;;;;;19.40;97.30;;;;;;5078322;28;19924;-81
2023/04/21 12:18:37;;;;;;;;;;;19.20;97.10;;;;;;5094977;28;19970;-81
2023/04/21 12:21:02;;;;;;;;;;;19.00;95.40;;;;;;5078754;28;19924;-81
2023/04/21 12:23:28;;;;;;;;;;;18.90;97.30;;;;;;5079031;28;19960;-80
2023/04/21 12:25:54;;;;;;;;;;;18.80;97.00;;;;;;5062509;28;20430;-80
2023/04/21 12:28:19;;;;;;;;;;;18.70;97.90;;;;;;5095717;28;19956;-80
2023/04/21 12:30:45;;;;;;;;;;;18.70;98.60;;;;;;5077553;28;19929;-80
2023/04/21 12:33:11;;;;;;;;;;;18.70;97.90;;;;;;5061728;28;19924;-80
2023/04/21 12:35:37;;;;;;;;;;;18.70;96.90;;;;;;5077703;28;20586;-80
2023/04/21 12:38:03;;;;;;;;;;;18.70;95.80;;;;;;5044618;28;19928;-80
2023/04/21 12:40:29;;;;;;;;;;;18.80;97.00;;;;;;5095297;28;20031;-80
2023/04/21 12:42:54;;;;;;;;;;;18.80;96.20;;;;;;5095217;28;19932;-80
2023/04/21 12:45:20;;;;;;;;;;;18.90;94.80;;;;;;5080116;28;20695;-80
2023/04/21 12:47:45;;;;;;;;;;;19.00;95.80;;;;;;5064986;28;19929;-80
2023/04/21 12:50:12;;;;;;;;;;;19.00;94.10;;;;;;5061549;28;20400;-80
2023/04/21 12:52:37;;;;;;;;;;;19.00;94.40;;;;;;5093060;28;19928;-80
2023/04/21 12:55:03;;;;;;;;;;;19.00;94.20;;;;;;5094637;28;20020;-80
2023/04/21 12:57:30;;;;;;;;;;;19.10;93.80;;;;;;5077561;28;19983;-80
2023/04/21 12:59:56;;;;;;;;;;;19.10;92.70;;;;;;5094185;28;20335;-80
2023/04/21 13:02:21;;;;;;;;;;;19.20;94.40;;;;;;5078413;28;19935;-81
2023/04/21 13:04:47;;;;;;;;;;;19.20;92.50;;;;;;5077656;28;19934;-80
2023/04/21 13:07:14;;;;;;;;;;;19.30;91.50;;;;;;5085159;28;19928;-80
2023/04/21 13:09:40;;;;;;;;;;;19.40;92.40;;;;;;5065676;28;19924;-80
2023/04/21 13:12:06;;;;;;;;;;;19.40;94.20;;;;;;5060912;28;19929;-81
2023/04/21 13:14:32;;;;;;;;;;;19.60;94.00;;;;;;5078460;28;19928;-80
2023/04/21 13:16:58;;;;;;;;;;;19.50;94.60;;;;;;5078572;28;20364;-80
2023/04/21 13:19:23;;;;;;;;;;;19.40;91.10;;;;;;5061062;28;19932;-80
2023/04/21 13:21:50;;;;;;;;;;;19.40;90.70;;;;;;5094218;28;20200;-80
2023/04/21 13:24:15;;;;;;;;;;;19.30;88.60;;;;;;5094562;28;19924;-80
2023/04/21 13:26:41;;;;;;;;;;;19.30;91.60;;;;;;5076929;28;19950;-80
2023/04/21 13:29:07;;;;;;;;;;;19.20;91.50;;;;;;5093911;28;19932;-80
2023/04/21 13:31:32;;;;;;;;;;;19.20;92.70;;;;;;5093978;28;19991;-81
2023/04/21 13:33:58;;;;;;;;;;;19.20;93.50;;;;;;5094067;28;20555;-80
2023/04/21 13:36:24;;;;;;;;;;;19.10;90.80;;;;;;5093853;28;19935;-80
2023/04/21 13:38:52;;;;;;;;;;;19.10;90.30;;;;;;5076603;28;19947;-80
2023/04/21 13:41:18;;;;;;;;;;;19.00;88.10;;;;;;5060699;28;20268;-80
2023/04/21 13:43:44;;;;;;;;;;;19.00;91.60;;;;;;5093666;28;19928;-80
2023/04/21 13:46:11;;;;;;;;;;;19.00;90.60;;;;;;5073328;28;19928;-81
2023/04/21 13:48:36;;;;;;;;;;;19.00;92.20;;;;;;5093117;28;20004;-81
2023/04/21 13:51:03;;;;;;;;;;;19.10;91.30;;;;;;5066163;28;19928;-81
2023/04/21 13:53:28;;;;;;;;;;;19.30;89.80;;;;;;5090272;28;20291;-80
2023/04/21 13:55:55;;;;;;;;;;;19.40;90.50;;;;;;5076985;28;19929;-80
2023/04/21 13:58:21;;;;;;;;;;;19.40;90.20;;;;;;5076813;28;20019;-81
2023/04/21 14:00:46;;;;;;;;;;;19.40;86.00;;;;;;5061087;28;20498;-81
2023/04/21 14:03:12;;;;;;;;;;;19.40;89.00;;;;;;5076773;28;20428;-80
2023/04/21 14:05:38;;;;;;;;;;;19.50;90.60;;;;;;5074930;28;19928;-81
2023/04/21 14:08:03;;;;;;;;;;;19.50;87.90;;;;;;5093133;28;19956;-81
2023/04/21 14:10:30;;;;;;;;;;;19.70;87.30;;;;;;5074932;28;19925;-81
2023/04/21 14:12:55;;;;;;;;;;;20.00;85.10;;;;;;5055670;28;19932;-81
2023/04/21 14:15:21;;;;;;;;;;;20.20;88.80;;;;;;5043815;28;19956;-81
2023/04/21 14:17:46;;;;;;;;;;;20.40;77.50;;;;;;5076027;28;19924;-81
2023/04/21 14:20:12;;;;;;;;;;;20.30;76.80;;;;;;5094420;28;19928;-81